METAR Data
IDs: Format: Raw Decoded Include TAF

Data at: 0816 UTC 03 Aug 2021

EFTU 030750Z AUTO 32007KT 280V360 9999 OVC038 14/10 Q1003